Capitol Logistics 7435

Operating for MZN



KBDL
Bradley International Airport
Windsor Locks, Connecticut
KAFW
Fort Worth Alliance Airport
Fort Worth, Texas

Activity Log

Date Flight Route Aircraft Duration
No Flights Yet

Route Details

Aircraft Information
Primary: Boeing 737-800BCF
Backup: Boeing 757-200SF
Route Data
Distance: 1287nm
Duration: 3h 20m
Recm'd Route: VEERS PWL BASYE Q406 BWZ J6 HVQ Q68 LITTR FAWNT WESAT2
Origin Wx: KBDL 020451Z 01003KT 10SM FEW025 SCT048 BKN095 BKN250 18/17 A2984 RMK AO2 SLP102 T01780167 402720117
Dest. Wx: KAFW 020353Z 35003KT 9SM -RA FEW040 SCT110 OVC130 23/22 A3005 RMK AO2 SLP160 P0005 T02330222 $
Notes: